createdAt,value
2018-12-16T00:00:39.960Z,-4.20
2018-12-16T00:02:17.016Z,-4.20
2018-12-16T00:03:54.004Z,-4.20
2018-12-16T00:05:31.048Z,-4.30
2018-12-16T00:07:06.059Z,-4.30
2018-12-16T00:08:42.124Z,-4.30
2018-12-16T00:10:17.252Z,-4.40
2018-12-16T00:11:52.572Z,-4.40
2018-12-16T00:13:27.651Z,-4.40
2018-12-16T00:15:02.692Z,-4.50
2018-12-16T00:16:37.886Z,-4.50
2018-12-16T00:18:12.843Z,-4.50
2018-12-16T00:19:47.837Z,-4.50
2018-12-16T00:21:22.897Z,-4.50
2018-12-16T00:22:57.893Z,-4.50
2018-12-16T00:24:32.845Z,-4.50
2018-12-16T00:26:07.889Z,-4.50
2018-12-16T00:27:43.070Z,-4.50
2018-12-16T00:29:18.374Z,-4.50
2018-12-16T00:30:53.498Z,-4.50
2018-12-16T00:32:28.497Z,-4.50
2018-12-16T00:34:03.561Z,-4.50
2018-12-16T00:35:38.589Z,-4.50
2018-12-16T00:37:13.528Z,-4.50
2018-12-16T00:38:48.526Z,-4.50
2018-12-16T00:40:23.474Z,-4.60
2018-12-16T00:41:58.480Z,-4.60
2018-12-16T00:43:33.428Z,-4.60
2018-12-16T00:45:08.574Z,-4.60
2018-12-16T00:46:43.550Z,-4.60
2018-12-16T00:48:18.565Z,-4.60
2018-12-16T00:49:54.737Z,-4.60
2018-12-16T00:51:29.711Z,-4.60
2018-12-16T00:53:04.847Z,-4.60
2018-12-16T00:54:39.764Z,-4.60
2018-12-16T00:56:14.873Z,-4.60
2018-12-16T00:57:49.870Z,-4.60
2018-12-16T00:59:24.885Z,-4.60
2018-12-16T01:00:59.797Z,-4.60
2018-12-16T01:02:40.332Z,-4.60
2018-12-16T01:04:15.800Z,-4.50
2018-12-16T01:05:51.001Z,-4.50
2018-12-16T01:07:25.998Z,-4.50
2018-12-16T01:09:01.079Z,-4.50
2018-12-16T01:10:38.270Z,-4.50
2018-12-16T01:12:13.306Z,-4.50
2018-12-16T01:13:48.435Z,-4.50
2018-12-16T01:15:23.480Z,-4.40
2018-12-16T01:16:58.353Z,-4.40
2018-12-16T01:18:33.232Z,-4.40
2018-12-16T01:20:09.342Z,-4.30
2018-12-16T01:21:45.591Z,-4.30
2018-12-16T01:23:20.627Z,-4.30
2018-12-16T01:24:55.628Z,-4.30
2018-12-16T01:26:30.866Z,-4.20
2018-12-16T01:28:05.787Z,-4.30
2018-12-16T01:29:40.839Z,-4.20
2018-12-16T01:31:15.740Z,-4.20
2018-12-16T01:32:50.865Z,-4.20
2018-12-16T01:34:26.945Z,-4.20
2018-12-16T01:36:01.878Z,-4.20
2018-12-16T01:37:36.758Z,-4.20
2018-12-16T01:39:11.803Z,-4.20
2018-12-16T01:40:46.681Z,-4.10
2018-12-16T01:42:22.719Z,-4.10
2018-12-16T01:43:57.676Z,-4.10
2018-12-16T01:45:32.773Z,-4.20
2018-12-16T01:47:07.685Z,-4.20
2018-12-16T01:48:42.644Z,-4.20
2018-12-16T01:50:17.548Z,-4.10
2018-12-16T01:51:52.516Z,-4.20
2018-12-16T01:53:27.656Z,-4.20
2018-12-16T01:55:02.687Z,-4.20
2018-12-16T01:56:37.614Z,-4.30
2018-12-16T01:58:12.537Z,-4.30
2018-12-16T01:59:47.646Z,-4.30
2018-12-16T02:01:22.560Z,-4.30
2018-12-16T02:02:57.569Z,-4.30
2018-12-16T02:04:33.182Z,-4.30
2018-12-16T02:06:08.120Z,-4.40
2018-12-16T02:07:43.096Z,-4.40
2018-12-16T02:09:17.993Z,-4.40
2018-12-16T02:10:53.189Z,-4.40
2018-12-16T02:12:28.078Z,-4.40
2018-12-16T02:14:03.028Z,-4.40
2018-12-16T02:15:38.191Z,-4.40
2018-12-16T02:17:13.216Z,-4.40
2018-12-16T02:18:48.266Z,-4.40
2018-12-16T02:20:23.411Z,-4.40
2018-12-16T02:21:58.357Z,-4.40
2018-12-16T02:23:33.259Z,-4.40
2018-12-16T02:25:08.459Z,-4.40
2018-12-16T02:26:43.448Z,-4.40
2018-12-16T02:28:18.338Z,-4.40
2018-12-16T02:29:53.372Z,-4.30
2018-12-16T02:31:28.409Z,-4.30
2018-12-16T02:33:04.183Z,-4.40
2018-12-16T02:34:39.064Z,-4.40
2018-12-16T02:36:14.026Z,-4.40
2018-12-16T02:37:48.949Z,-4.40
2018-12-16T02:39:23.879Z,-4.40
2018-12-16T02:40:58.814Z,-4.40
2018-12-16T02:42:33.794Z,-4.40
2018-12-16T02:44:08.757Z,-4.30
2018-12-16T02:45:43.785Z,-4.30
2018-12-16T02:47:18.781Z,-4.30
2018-12-16T02:48:53.735Z,-4.30
2018-12-16T02:50:28.657Z,-4.30
2018-12-16T02:52:03.638Z,-4.30
2018-12-16T02:53:38.567Z,-4.30
2018-12-16T02:55:13.671Z,-4.30
2018-12-16T02:56:48.773Z,-4.20
2018-12-16T02:58:23.675Z,-4.20
2018-12-16T02:59:58.685Z,-4.20
2018-12-16T03:01:33.725Z,-4.20
2018-12-16T03:03:08.782Z,-4.20
2018-12-16T03:04:43.821Z,-4.20
2018-12-16T03:06:19.002Z,-4.20
2018-12-16T03:07:54.272Z,-4.20
2018-12-16T03:09:29.188Z,-4.10
2018-12-16T03:11:04.395Z,-4.20
2018-12-16T03:12:40.393Z,-4.10
2018-12-16T03:14:15.563Z,-4.20
2018-12-16T03:15:50.667Z,-4.20
2018-12-16T03:17:25.584Z,-4.20
2018-12-16T03:19:00.676Z,-4.10
2018-12-16T03:20:35.782Z,-4.10
2018-12-16T03:22:10.723Z,-4.10
2018-12-16T03:23:45.736Z,-4.10
2018-12-16T03:25:20.801Z,-4.10
2018-12-16T03:26:55.845Z,-4.00
2018-12-16T03:28:31.748Z,-4.00
2018-12-16T03:30:08.682Z,-4.00
2018-12-16T03:31:43.717Z,-4.00
2018-12-16T03:33:18.724Z,-4.00
2018-12-16T03:34:53.724Z,-4.00
2018-12-16T03:36:28.619Z,-4.00
2018-12-16T03:38:03.513Z,-4.00
2018-12-16T03:39:38.433Z,-4.00
2018-12-16T03:41:15.411Z,-4.00
2018-12-16T03:42:50.348Z,-4.00
2018-12-16T03:44:25.252Z,-4.00
2018-12-16T03:46:00.134Z,-4.00
2018-12-16T03:47:35.105Z,-4.00
2018-12-16T03:49:10.041Z,-4.00
2018-12-16T03:50:44.941Z,-4.00
2018-12-16T03:52:20.068Z,-4.00
2018-12-16T03:53:55.016Z,-4.00
2018-12-16T03:55:29.959Z,-4.00
2018-12-16T03:57:04.846Z,-4.00
2018-12-16T03:58:49.850Z,-3.90
2018-12-16T04:00:24.835Z,-3.90
2018-12-16T04:01:59.868Z,-3.90
2018-12-16T04:03:34.924Z,-3.90
2018-12-16T04:05:09.979Z,-3.90
2018-12-16T04:06:44.955Z,-3.90
2018-12-16T04:08:19.982Z,-3.90
2018-12-16T04:09:54.933Z,-3.80
2018-12-16T04:11:29.833Z,-3.90
2018-12-16T04:13:04.779Z,-3.90
2018-12-16T04:14:41.294Z,-3.80
2018-12-16T04:16:16.478Z,-3.80
2018-12-16T04:17:51.417Z,-3.80
2018-12-16T04:19:26.337Z,-3.80
2018-12-16T04:21:01.292Z,-3.80
2018-12-16T04:22:36.347Z,-3.80
2018-12-16T04:24:11.262Z,-3.90
2018-12-16T04:25:46.206Z,-3.90
2018-12-16T04:27:21.116Z,-3.90
2018-12-16T04:28:56.007Z,-4.00
2018-12-16T04:30:31.018Z,-4.00
2018-12-16T04:32:05.940Z,-4.10
2018-12-16T04:33:40.937Z,-4.10
2018-12-16T04:35:15.823Z,-4.10
2018-12-16T04:36:50.700Z,-4.10
2018-12-16T04:38:25.628Z,-4.10
2018-12-16T04:40:00.514Z,-4.10
2018-12-16T04:41:35.646Z,-4.10
2018-12-16T04:43:10.840Z,-4.00
2018-12-16T04:44:45.789Z,-4.00
2018-12-16T04:46:20.737Z,-3.90
2018-12-16T04:47:55.739Z,-3.90
2018-12-16T04:49:30.637Z,-3.80
2018-12-16T04:51:05.561Z,-3.80
2018-12-16T04:52:40.544Z,-3.80
2018-12-16T04:54:15.584Z,-3.70
2018-12-16T04:55:50.537Z,-3.70
2018-12-16T04:57:25.548Z,-3.70
2018-12-16T04:59:00.457Z,-3.60
2018-12-16T05:00:35.370Z,-3.60
2018-12-16T05:02:10.281Z,-3.60
2018-12-16T05:03:45.233Z,-3.60
2018-12-16T05:05:20.199Z,-3.60
2018-12-16T05:06:55.227Z,-3.60
2018-12-16T05:08:30.149Z,-3.60
2018-12-16T05:10:31.596Z,-3.60
2018-12-16T05:12:06.580Z,-3.70
2018-12-16T05:13:41.454Z,-3.70
2018-12-16T05:15:16.331Z,-3.70
2018-12-16T05:16:51.255Z,-3.70
2018-12-16T05:18:26.230Z,-3.80
2018-12-16T05:20:01.155Z,-3.70
2018-12-16T05:21:36.700Z,-3.70
2018-12-16T05:23:11.655Z,-3.70
2018-12-16T05:24:46.585Z,-3.70
2018-12-16T05:26:21.467Z,-3.70
2018-12-16T05:27:56.413Z,-3.60
2018-12-16T05:29:32.406Z,-3.60
2018-12-16T05:31:07.317Z,-3.60
2018-12-16T05:32:42.222Z,-3.60
2018-12-16T05:34:17.128Z,-3.60
2018-12-16T05:35:52.002Z,-3.60
2018-12-16T05:37:26.896Z,-3.60
2018-12-16T05:39:01.802Z,-3.50
2018-12-16T05:40:38.921Z,-3.60
2018-12-16T05:42:13.947Z,-3.50
2018-12-16T05:43:48.881Z,-3.50
2018-12-16T05:45:23.799Z,-3.50
2018-12-16T05:46:58.668Z,-3.50
2018-12-16T05:48:33.594Z,-3.40
2018-12-16T05:50:08.582Z,-3.40
2018-12-16T05:51:43.460Z,-3.40
2018-12-16T05:53:18.391Z,-3.40
2018-12-16T05:54:53.334Z,-3.40
2018-12-16T05:56:28.285Z,-3.40
2018-12-16T05:58:03.167Z,-3.40
2018-12-16T05:59:38.131Z,-3.40
2018-12-16T06:01:13.188Z,-3.40
2018-12-16T06:02:48.148Z,-3.50
2018-12-16T06:04:23.043Z,-3.50
2018-12-16T06:05:57.899Z,-3.50
2018-12-16T06:07:32.777Z,-3.50
2018-12-16T06:09:07.770Z,-3.50
2018-12-16T06:10:42.653Z,-3.50
2018-12-16T06:12:17.638Z,-3.50
2018-12-16T06:13:52.654Z,-3.50
2018-12-16T06:15:27.568Z,-3.50
2018-12-16T06:17:02.702Z,-3.50
2018-12-16T06:18:37.560Z,-3.40
2018-12-16T06:20:12.452Z,-3.40
2018-12-16T06:21:47.465Z,-3.40
2018-12-16T06:23:22.604Z,-3.30
2018-12-16T06:24:57.633Z,-3.30
2018-12-16T06:26:32.539Z,-3.30
2018-12-16T06:28:07.555Z,-3.20
2018-12-16T06:29:43.176Z,-3.20
2018-12-16T06:31:18.128Z,-3.20
2018-12-16T06:32:53.085Z,-3.20
2018-12-16T06:34:29.136Z,-3.20
2018-12-16T06:36:04.038Z,-3.10
2018-12-16T06:37:38.895Z,-3.10
2018-12-16T06:39:13.818Z,-3.10
2018-12-16T06:40:48.701Z,-3.00
2018-12-16T06:42:23.732Z,-3.00
2018-12-16T06:43:58.596Z,-3.00
2018-12-16T06:45:33.512Z,-3.00
2018-12-16T06:47:08.522Z,-3.00
2018-12-16T06:48:43.494Z,-3.00
2018-12-16T06:50:18.487Z,-2.90
2018-12-16T06:51:53.388Z,-2.90
2018-12-16T06:53:28.318Z,-2.90
2018-12-16T06:55:03.303Z,-2.90
2018-12-16T06:56:38.201Z,-2.90
2018-12-16T06:58:13.231Z,-2.90
2018-12-16T06:59:48.360Z,-2.80
2018-12-16T07:01:23.264Z,-2.80
2018-12-16T07:02:58.164Z,-2.80
2018-12-16T07:04:33.037Z,-2.80
2018-12-16T07:06:08.059Z,-2.80
2018-12-16T07:07:43.102Z,-2.80
2018-12-16T07:09:17.979Z,-2.80
2018-12-16T07:10:52.868Z,-2.80
2018-12-16T07:12:28.983Z,-2.70
2018-12-16T07:14:04.104Z,-2.70
2018-12-16T07:15:39.114Z,-2.70
2018-12-16T07:17:14.112Z,-2.70
2018-12-16T07:18:49.225Z,-2.70
2018-12-16T07:20:24.151Z,-2.70
2018-12-16T07:21:59.129Z,-2.60
2018-12-16T07:23:34.096Z,-2.60
2018-12-16T07:25:09.200Z,-2.60
2018-12-16T07:26:44.216Z,-2.60
2018-12-16T07:28:19.108Z,-2.60
2018-12-16T07:31:35.429Z,-2.50
2018-12-16T07:33:10.482Z,-2.50
2018-12-16T07:34:45.509Z,-2.50
2018-12-16T07:36:20.541Z,-2.40
2018-12-16T07:37:55.543Z,-2.40
2018-12-16T07:39:30.455Z,-2.40
2018-12-16T07:41:05.385Z,-2.30
2018-12-16T07:42:40.542Z,-2.30
2018-12-16T07:44:15.487Z,-2.30
2018-12-16T07:45:50.411Z,-2.20
2018-12-16T07:47:26.272Z,-2.20
2018-12-16T07:49:01.314Z,-2.20
2018-12-16T07:50:36.469Z,-2.10
2018-12-16T07:52:11.569Z,-2.10
2018-12-16T07:53:46.566Z,-2.10
2018-12-16T07:55:21.593Z,-2.00
2018-12-16T07:56:56.648Z,-2.00
2018-12-16T07:58:31.655Z,-2.00
2018-12-16T08:00:08.894Z,-2.00
2018-12-16T08:01:44.033Z,-2.00
2018-12-16T08:03:19.007Z,-2.00
2018-12-16T08:04:54.197Z,-2.00
2018-12-16T08:06:29.302Z,-2.00
2018-12-16T08:08:04.405Z,-1.90
2018-12-16T08:09:39.368Z,-1.90
2018-12-16T08:11:14.340Z,-1.90
2018-12-16T08:12:49.216Z,-1.90
2018-12-16T08:14:24.110Z,-1.80
2018-12-16T08:15:59.003Z,-1.80
2018-12-16T08:17:33.994Z,-1.80
2018-12-16T08:19:08.949Z,-1.80
2018-12-16T08:20:44.889Z,-1.70
2018-12-16T08:22:19.920Z,-1.60
2018-12-16T08:23:55.064Z,-1.60
2018-12-16T08:25:29.996Z,-1.50
2018-12-16T08:27:06.138Z,-1.40
2018-12-16T08:28:41.182Z,-1.30
2018-12-16T08:30:16.065Z,-1.20
2018-12-16T08:31:51.219Z,-1.20
2018-12-16T08:33:26.257Z,-1.20
2018-12-16T08:35:01.164Z,-1.20
2018-12-16T08:36:36.371Z,-1.10
2018-12-16T08:38:11.298Z,-1.10
2018-12-16T08:39:46.325Z,-1.10
2018-12-16T08:41:21.270Z,-1.10
2018-12-16T08:42:56.215Z,-1.10
2018-12-16T08:44:31.200Z,-1.10
2018-12-16T08:46:06.078Z,-1.00
2018-12-16T08:47:41.103Z,-1.00
2018-12-16T08:49:15.968Z,-1.00
2018-12-16T08:50:50.845Z,-1.00
2018-12-16T08:52:26.939Z,-0.90
2018-12-16T08:54:02.003Z,-0.90
2018-12-16T08:55:38.222Z,-0.80
2018-12-16T08:57:13.166Z,-0.80
2018-12-16T08:58:48.112Z,-0.70
2018-12-16T09:00:23.005Z,-0.70
2018-12-16T09:01:58.028Z,-0.70
2018-12-16T09:03:32.989Z,-0.70
2018-12-16T09:05:08.122Z,-0.70
2018-12-16T09:06:43.197Z,-0.60
2018-12-16T09:08:18.177Z,-0.50
2018-12-16T09:09:53.147Z,-0.50
2018-12-16T09:11:28.240Z,-0.50
2018-12-16T09:13:03.468Z,-0.60
2018-12-16T09:14:38.347Z,-0.60
2018-12-16T09:16:13.523Z,-0.60
2018-12-16T09:17:48.599Z,-0.60
2018-12-16T09:19:23.498Z,-0.60
2018-12-16T09:20:58.454Z,-0.60
2018-12-16T09:22:33.460Z,-0.70
2018-12-16T09:24:08.303Z,-0.70
2018-12-16T09:25:43.289Z,-0.70
2018-12-16T09:27:18.218Z,-0.70
2018-12-16T09:28:53.193Z,-0.70
2018-12-16T09:30:28.253Z,-0.70
2018-12-16T09:32:03.365Z,-0.70
2018-12-16T09:33:38.377Z,-0.70
2018-12-16T09:35:13.780Z,-0.70
2018-12-16T09:36:48.812Z,-0.70
2018-12-16T09:38:23.853Z,-0.70
2018-12-16T09:39:58.822Z,-0.70
2018-12-16T09:41:33.744Z,-0.70
2018-12-16T09:43:08.853Z,-0.60
2018-12-16T09:44:44.037Z,-0.60
2018-12-16T09:46:18.929Z,-0.50
2018-12-16T09:47:54.177Z,-0.40
2018-12-16T09:49:29.122Z,-0.40
2018-12-16T09:51:05.024Z,-0.40
2018-12-16T09:52:39.976Z,-0.40
2018-12-16T09:54:14.960Z,-0.40
2018-12-16T09:55:50.007Z,-0.50
2018-12-16T09:57:24.897Z,-0.50
2018-12-16T09:58:59.831Z,-0.40
2018-12-16T10:00:34.956Z,-0.40
2018-12-16T10:02:09.998Z,-0.40
2018-12-16T10:03:44.944Z,-0.40
2018-12-16T10:05:19.958Z,-0.30
2018-12-16T10:06:54.871Z,-0.30
2018-12-16T10:08:29.844Z,-0.30
2018-12-16T10:10:06.971Z,-0.30
2018-12-16T10:11:41.985Z,-0.30
2018-12-16T10:13:17.007Z,-0.20
2018-12-16T10:14:52.218Z,-0.20
2018-12-16T10:16:27.115Z,-0.10
2018-12-16T10:18:02.024Z,-0.10
2018-12-16T10:19:37.018Z,-0.10
2018-12-16T10:21:11.958Z,-0.10
2018-12-16T10:22:46.865Z,0.00
2018-12-16T10:24:22.205Z,-0.10
2018-12-16T10:25:57.103Z,-0.10
2018-12-16T10:27:33.283Z,-0.10
2018-12-16T10:29:08.433Z,-0.10
2018-12-16T10:30:43.526Z,-0.10
2018-12-16T10:32:18.783Z,-0.10
2018-12-16T10:33:53.741Z,-0.10
2018-12-16T10:35:28.869Z,-0.10
2018-12-16T10:37:03.873Z,-0.10
2018-12-16T10:38:39.809Z,-0.10
2018-12-16T10:40:14.892Z,-0.10
2018-12-16T10:41:50.872Z,-0.10
2018-12-16T10:43:26.113Z,0.00
2018-12-16T10:45:01.612Z,-0.10
2018-12-16T10:46:38.014Z,-0.10
2018-12-16T10:48:13.347Z,0.00
2018-12-16T10:49:48.552Z,0.00
2018-12-16T10:51:23.601Z,0.00
2018-12-16T10:52:58.536Z,0.10
2018-12-16T10:54:33.596Z,0.20
2018-12-16T10:56:08.675Z,0.30
2018-12-16T10:57:43.641Z,0.40
2018-12-16T10:59:18.682Z,0.50
2018-12-16T11:00:59.051Z,0.60
2018-12-16T11:02:33.973Z,0.60
2018-12-16T11:04:09.155Z,0.70
2018-12-16T11:05:45.347Z,0.70
2018-12-16T11:07:21.665Z,0.70
2018-12-16T11:08:57.411Z,0.70
2018-12-16T11:10:32.364Z,0.70
2018-12-16T11:12:08.288Z,0.70
2018-12-16T11:13:44.425Z,0.70
2018-12-16T11:15:19.417Z,0.60
2018-12-16T11:16:54.454Z,0.60
2018-12-16T11:18:29.412Z,0.60
2018-12-16T11:20:05.114Z,0.60
2018-12-16T11:21:40.517Z,0.60
2018-12-16T11:23:15.520Z,0.60
2018-12-16T11:24:50.734Z,0.70
2018-12-16T11:26:25.676Z,0.80
2018-12-16T11:28:00.581Z,0.80
2018-12-16T11:29:35.568Z,0.80
2018-12-16T11:31:10.564Z,0.80
2018-12-16T11:32:45.500Z,0.80
2018-12-16T11:34:20.478Z,0.90
2018-12-16T11:35:55.656Z,0.90
2018-12-16T11:37:30.647Z,0.90
2018-12-16T11:39:07.321Z,1.00
2018-12-16T11:40:44.372Z,1.00
2018-12-16T11:42:19.485Z,1.10
2018-12-16T11:43:54.523Z,1.20
2018-12-16T11:45:29.493Z,1.20
2018-12-16T11:47:04.381Z,1.30
2018-12-16T11:48:39.448Z,1.30
2018-12-16T11:50:14.420Z,1.30
2018-12-16T11:51:49.640Z,1.30
2018-12-16T11:53:27.623Z,1.30
2018-12-16T11:55:02.852Z,1.20
2018-12-16T11:56:37.957Z,1.20
2018-12-16T11:58:12.829Z,1.20
2018-12-16T11:59:47.823Z,1.20
2018-12-16T12:01:22.811Z,1.20
2018-12-16T12:02:57.810Z,1.20
2018-12-16T12:04:34.777Z,1.20
2018-12-16T12:06:09.801Z,1.30
2018-12-16T12:07:44.701Z,1.30
2018-12-16T12:09:19.662Z,1.40
2018-12-16T12:10:54.728Z,1.50
2018-12-16T12:12:29.674Z,1.60
2018-12-16T12:14:05.015Z,1.70
2018-12-16T12:15:40.083Z,1.70
2018-12-16T12:17:15.083Z,1.70
2018-12-16T12:18:58.951Z,1.80
2018-12-16T12:20:34.006Z,1.80
2018-12-16T12:22:09.109Z,1.80
2018-12-16T12:23:44.047Z,1.80
2018-12-16T12:25:20.026Z,1.80
2018-12-16T12:26:55.229Z,1.80
2018-12-16T12:28:32.413Z,1.70
2018-12-16T12:30:09.631Z,1.70
2018-12-16T12:31:44.656Z,1.80
2018-12-16T12:33:19.622Z,1.80
2018-12-16T12:34:54.640Z,1.80
2018-12-16T12:36:29.648Z,1.80
2018-12-16T12:38:04.799Z,1.80
2018-12-16T12:39:39.694Z,1.90
2018-12-16T12:41:14.797Z,1.90
2018-12-16T12:42:49.749Z,1.90
2018-12-16T12:44:24.615Z,1.90
2018-12-16T12:45:59.786Z,1.90
2018-12-16T12:47:35.702Z,1.90
2018-12-16T12:49:10.640Z,1.90
2018-12-16T12:50:45.920Z,1.90
2018-12-16T12:52:21.089Z,1.90
2018-12-16T12:53:56.187Z,1.80
2018-12-16T12:55:31.281Z,1.70
2018-12-16T12:57:06.570Z,1.70
2018-12-16T12:58:41.917Z,1.60
2018-12-16T13:00:17.345Z,1.60
2018-12-16T13:01:53.434Z,1.60
2018-12-16T13:03:41.598Z,1.50
2018-12-16T13:05:16.670Z,1.50
2018-12-16T13:06:51.895Z,1.50
2018-12-16T13:08:27.042Z,1.50
2018-12-16T13:10:03.762Z,1.40
2018-12-16T13:11:40.477Z,1.40
2018-12-16T13:13:17.323Z,1.40
2018-12-16T13:14:53.147Z,1.50
2018-12-16T13:16:29.598Z,1.50
2018-12-16T13:18:05.943Z,1.50
2018-12-16T13:19:41.487Z,1.40
2018-12-16T13:21:16.858Z,1.50
2018-12-16T13:22:52.287Z,1.50
2018-12-16T13:24:27.700Z,1.50
2018-12-16T13:26:04.627Z,1.50
2018-12-16T13:27:39.707Z,1.50
2018-12-16T13:29:14.877Z,1.50
2018-12-16T13:30:50.025Z,1.60
2018-12-16T13:32:25.277Z,1.60
2018-12-16T13:34:00.435Z,1.60
2018-12-16T13:35:35.783Z,1.60
2018-12-16T13:37:10.740Z,1.70
2018-12-16T13:38:45.708Z,1.70
2018-12-16T13:40:20.879Z,1.70
2018-12-16T13:41:56.071Z,1.80
2018-12-16T13:43:32.141Z,1.80
2018-12-16T13:45:07.975Z,1.80
2018-12-16T13:46:45.960Z,1.80
2018-12-16T13:48:21.144Z,1.90
2018-12-16T13:49:56.308Z,1.90
2018-12-16T13:51:31.675Z,1.90
2018-12-16T13:53:07.115Z,1.90
2018-12-16T13:54:42.388Z,1.90
2018-12-16T13:56:17.625Z,1.90
2018-12-16T13:57:53.114Z,1.90
2018-12-16T13:59:28.449Z,1.90
2018-12-16T14:01:03.823Z,1.90
2018-12-16T14:02:39.112Z,1.90
2018-12-16T14:04:14.227Z,1.90
2018-12-16T14:05:49.197Z,1.90
2018-12-16T14:07:24.122Z,1.90
2018-12-16T14:08:59.048Z,1.90
2018-12-16T14:10:34.793Z,1.90
2018-12-16T14:12:09.688Z,1.90
2018-12-16T14:13:44.608Z,1.90
2018-12-16T14:15:19.560Z,1.90
2018-12-16T14:16:54.571Z,1.90
2018-12-16T14:18:29.478Z,1.90
2018-12-16T14:20:05.460Z,1.90
2018-12-16T14:21:40.489Z,1.90
2018-12-16T14:23:15.434Z,1.90
2018-12-16T14:24:50.652Z,1.90
2018-12-16T14:26:25.539Z,1.90
2018-12-16T14:28:00.665Z,2.00
2018-12-16T14:29:35.649Z,2.00
2018-12-16T14:31:10.575Z,2.00
2018-12-16T14:32:45.613Z,2.00
2018-12-16T14:34:20.596Z,2.00
2018-12-16T14:35:55.578Z,2.00
2018-12-16T14:37:30.542Z,2.00
2018-12-16T14:39:07.703Z,2.00
2018-12-16T14:40:44.725Z,2.00
2018-12-16T14:42:20.869Z,2.00
2018-12-16T14:43:55.956Z,2.00
2018-12-16T14:45:30.930Z,2.00
2018-12-16T14:47:06.050Z,2.00
2018-12-16T14:48:41.157Z,2.00
2018-12-16T14:50:16.223Z,2.00
2018-12-16T14:51:51.373Z,2.00
2018-12-16T14:53:26.757Z,2.00
2018-12-16T14:55:01.807Z,2.00
2018-12-16T14:56:36.900Z,2.00
2018-12-16T14:58:12.455Z,2.00
2018-12-16T14:59:47.452Z,2.00
2018-12-16T15:01:22.324Z,2.00
2018-12-16T15:02:57.204Z,2.00
2018-12-16T15:04:32.193Z,2.00
2018-12-16T15:06:07.221Z,2.00
2018-12-16T15:07:42.117Z,2.00
2018-12-16T15:09:17.159Z,2.10
2018-12-16T15:10:52.138Z,2.10
2018-12-16T15:12:27.048Z,2.10
2018-12-16T15:14:02.060Z,2.10
2018-12-16T15:15:37.053Z,2.10
2018-12-16T15:17:12.013Z,2.10
2018-12-16T15:18:46.934Z,2.10
2018-12-16T15:20:21.941Z,2.10
2018-12-16T15:21:56.805Z,2.10
2018-12-16T15:23:31.730Z,2.10
2018-12-16T15:25:07.230Z,2.10
2018-12-16T15:26:42.084Z,2.10
2018-12-16T15:28:17.090Z,2.10
2018-12-16T15:29:51.978Z,2.10
2018-12-16T15:31:26.974Z,2.10
2018-12-16T15:33:01.929Z,2.10
2018-12-16T15:34:36.825Z,2.10
2018-12-16T15:36:11.812Z,2.10
2018-12-16T15:37:46.744Z,2.10
2018-12-16T15:39:21.636Z,2.10
2018-12-16T15:40:56.620Z,2.10
2018-12-16T15:42:31.821Z,2.10
2018-12-16T15:44:06.636Z,2.10
2018-12-16T15:45:41.580Z,2.10
2018-12-16T15:47:16.578Z,2.10
2018-12-16T15:48:51.502Z,2.10
2018-12-16T15:50:26.532Z,2.10
2018-12-16T15:52:01.575Z,2.10
2018-12-16T15:53:36.949Z,2.10
2018-12-16T15:55:12.115Z,2.10
2018-12-16T15:56:48.132Z,2.10
2018-12-16T15:58:23.036Z,2.10
2018-12-16T15:59:57.997Z,2.10
2018-12-16T16:01:32.985Z,2.20
2018-12-16T16:03:08.140Z,2.20
2018-12-16T16:04:43.031Z,2.20
2018-12-16T16:06:18.049Z,2.20
2018-12-16T16:07:53.068Z,2.20
2018-12-16T16:09:28.432Z,2.20
2018-12-16T16:11:04.736Z,2.20
2018-12-16T16:12:39.713Z,2.20
2018-12-16T16:14:14.626Z,2.20
2018-12-16T16:15:49.538Z,2.20
2018-12-16T16:17:24.394Z,2.30
2018-12-16T16:18:59.305Z,2.30
2018-12-16T16:20:34.244Z,2.30
2018-12-16T16:22:09.284Z,2.30
2018-12-16T16:23:44.178Z,2.30
2018-12-16T16:25:19.120Z,2.30
2018-12-16T16:26:54.301Z,2.30
2018-12-16T16:28:29.281Z,2.30
2018-12-16T16:30:05.222Z,2.30
2018-12-16T16:31:40.542Z,2.30
2018-12-16T16:33:15.460Z,2.30
2018-12-16T16:34:50.505Z,2.40
2018-12-16T16:36:25.560Z,2.40
2018-12-16T16:38:01.030Z,2.40
2018-12-16T16:39:36.099Z,2.50
2018-12-16T16:41:11.280Z,2.50
2018-12-16T16:42:46.420Z,2.50
2018-12-16T16:44:21.370Z,2.50
2018-12-16T16:45:56.348Z,2.60
2018-12-16T16:47:31.308Z,2.60
2018-12-16T16:49:06.232Z,2.60
2018-12-16T16:50:41.110Z,2.60
2018-12-16T16:52:16.125Z,2.60
2018-12-16T16:53:51.133Z,2.50
2018-12-16T16:55:26.026Z,2.50
2018-12-16T16:57:01.175Z,2.40
2018-12-16T16:58:36.068Z,2.40
2018-12-16T17:00:11.599Z,2.40
2018-12-16T17:01:46.729Z,2.40
2018-12-16T17:03:21.619Z,2.40
2018-12-16T17:04:56.573Z,2.40
2018-12-16T17:06:31.647Z,2.40
2018-12-16T17:08:07.122Z,2.40
2018-12-16T17:09:42.063Z,2.40
2018-12-16T17:11:17.319Z,2.40
2018-12-16T17:12:52.290Z,2.50
2018-12-16T17:14:27.426Z,2.50
2018-12-16T17:16:02.313Z,2.50
2018-12-16T17:17:37.337Z,2.50
2018-12-16T17:19:12.548Z,2.50
2018-12-16T17:20:47.467Z,2.60
2018-12-16T17:22:22.524Z,2.60
2018-12-16T17:23:57.587Z,2.60
2018-12-16T17:25:32.596Z,2.60
2018-12-16T17:27:07.525Z,2.70
2018-12-16T17:28:42.485Z,2.70
2018-12-16T17:30:17.386Z,2.70
2018-12-16T17:31:52.525Z,2.70
2018-12-16T17:33:27.614Z,2.80
2018-12-16T17:35:02.718Z,2.80
2018-12-16T17:36:38.836Z,2.80
2018-12-16T17:38:13.773Z,2.80
2018-12-16T17:39:49.209Z,2.90
2018-12-16T17:41:24.147Z,2.90
2018-12-16T17:42:59.182Z,2.90
2018-12-16T17:44:34.202Z,2.90
2018-12-16T17:46:09.114Z,2.90
2018-12-16T17:47:44.464Z,2.90
2018-12-16T17:49:19.448Z,2.90
2018-12-16T17:50:54.384Z,2.90
2018-12-16T17:52:29.742Z,2.90
2018-12-16T17:54:05.264Z,2.90
2018-12-16T17:55:40.285Z,2.90
2018-12-16T17:57:15.224Z,2.80
2018-12-16T17:58:50.226Z,2.80
2018-12-16T18:00:25.380Z,2.80
2018-12-16T18:02:00.664Z,2.80
2018-12-16T18:03:37.537Z,2.80
2018-12-16T18:05:12.577Z,2.80
2018-12-16T18:06:47.457Z,2.80
2018-12-16T18:08:22.385Z,2.80
2018-12-16T18:09:57.391Z,2.80
2018-12-16T18:11:32.568Z,2.80
2018-12-16T18:13:08.365Z,2.70
2018-12-16T18:14:43.407Z,2.70
2018-12-16T18:16:18.321Z,2.70
2018-12-16T18:17:53.301Z,2.70
2018-12-16T18:19:28.297Z,2.60
2018-12-16T18:21:04.095Z,2.60
2018-12-16T18:22:38.996Z,2.60
2018-12-16T18:24:13.904Z,2.60
2018-12-16T18:25:48.872Z,2.60
2018-12-16T18:27:23.790Z,2.50
2018-12-16T18:28:58.673Z,2.50
2018-12-16T18:30:33.525Z,2.50
2018-12-16T18:32:08.513Z,2.50
2018-12-16T18:33:43.522Z,2.50
2018-12-16T18:35:18.758Z,2.50
2018-12-16T18:36:53.747Z,2.50
2018-12-16T18:38:29.087Z,2.60
2018-12-16T18:40:04.733Z,2.60
2018-12-16T18:41:40.702Z,2.60
2018-12-16T18:43:15.636Z,2.60
2018-12-16T18:44:50.505Z,2.60
2018-12-16T18:46:25.897Z,2.60
2018-12-16T18:48:03.488Z,2.60
2018-12-16T18:49:42.113Z,2.60
2018-12-16T18:51:17.549Z,2.60
2018-12-16T18:52:53.080Z,2.60
2018-12-16T18:54:32.482Z,2.50
2018-12-16T18:56:08.432Z,2.50
2018-12-16T18:57:43.500Z,2.50
2018-12-16T18:59:18.693Z,2.50
2018-12-16T19:00:54.770Z,2.40
2018-12-16T19:02:29.971Z,2.40
2018-12-16T19:04:05.128Z,2.30
2018-12-16T19:05:40.068Z,2.30
2018-12-16T19:07:15.022Z,2.30
2018-12-16T19:08:49.926Z,2.30
2018-12-16T19:10:24.821Z,2.20
2018-12-16T19:11:59.801Z,2.20
2018-12-16T19:13:34.934Z,2.20
2018-12-16T19:15:10.386Z,2.20
2018-12-16T19:16:45.381Z,2.20
2018-12-16T19:18:20.812Z,2.20
2018-12-16T19:19:55.840Z,2.10
2018-12-16T19:21:30.869Z,2.10
2018-12-16T19:23:05.719Z,2.00
2018-12-16T19:24:40.822Z,2.00
2018-12-16T19:26:15.773Z,1.90
2018-12-16T19:27:51.051Z,1.90
2018-12-16T19:29:26.004Z,1.80
2018-12-16T19:31:01.056Z,1.70
2018-12-16T19:32:37.112Z,1.70
2018-12-16T19:34:12.314Z,1.60
2018-12-16T19:35:47.336Z,1.50
2018-12-16T19:37:22.289Z,1.50
2018-12-16T19:38:57.521Z,1.50
2018-12-16T19:40:32.491Z,1.40
2018-12-16T19:42:07.531Z,1.40
2018-12-16T19:43:42.453Z,1.30
2018-12-16T19:45:17.412Z,1.30
2018-12-16T19:46:52.401Z,1.20
2018-12-16T19:48:27.392Z,1.20
2018-12-16T19:50:02.418Z,1.10
2018-12-16T19:51:37.749Z,1.10
2018-12-16T19:53:12.597Z,1.10
2018-12-16T19:54:48.010Z,1.00
2018-12-16T19:56:22.926Z,1.00
2018-12-16T19:57:57.872Z,1.00
2018-12-16T19:59:32.830Z,1.00
2018-12-16T20:01:07.914Z,1.00
2018-12-16T20:02:42.961Z,1.00
2018-12-16T20:04:19.618Z,0.90
2018-12-16T20:06:01.177Z,0.90
2018-12-16T20:07:36.135Z,0.90
2018-12-16T20:09:11.213Z,0.90
2018-12-16T20:10:46.232Z,0.90
2018-12-16T20:12:21.185Z,0.90
2018-12-16T20:13:56.078Z,0.90
2018-12-16T20:15:31.051Z,0.90
2018-12-16T20:17:06.060Z,0.90
2018-12-16T20:18:43.051Z,0.90
2018-12-16T20:20:17.963Z,0.90
2018-12-16T20:21:53.045Z,0.90
2018-12-16T20:23:27.971Z,1.00
2018-12-16T20:25:03.157Z,1.00
2018-12-16T20:26:38.142Z,1.10
2018-12-16T20:28:13.056Z,1.10
2018-12-16T20:29:48.360Z,1.20
2018-12-16T20:31:24.601Z,1.20
2018-12-16T20:32:59.619Z,1.30
2018-12-16T20:34:34.545Z,1.30
2018-12-16T20:36:09.429Z,1.40
2018-12-16T20:37:44.780Z,1.40
2018-12-16T20:39:19.746Z,1.50
2018-12-16T20:40:54.780Z,1.50
2018-12-16T20:42:29.820Z,1.50
2018-12-16T20:44:04.796Z,1.60
2018-12-16T20:45:39.709Z,1.60
2018-12-16T20:47:14.608Z,1.60